Terminal Aerodrome Forecast
Issued by NWS Memphis, TN

Home | Current Version | Previous Version | Text Only | Print | Product List | Glossary On
Versions: 1 2 3 4 5 6 7 8 9 10 11 12 13 14
000
FTUS44 KMEG 231130
TAFMKL
TAF
KMKL 231130Z 2312/2412 22006KT 5SM -DZ BR OVC004
     FM231700 18008KT P6SM -SHRA VCTS BKN015CB OVC035
     FM232300 25005KT 6SM BR VCSH BKN018 OVC035
     FM240400 VRB03KT 5SM BR OVC008
     FM240900 VRB03KT 3SM BR OVC003=

USA.gov is the U.S. government's official web portal to all federal, state and local government web resources and services.